Time;durP1;ratioP1;P1;durP2;ratioP2;P2;SDS_P1;SDS_P2;PMS_P1;PMS_P2;Temp;Humidity;BMP_temperature;BMP_pressure;BME280_temperature;BME280_humidity;BME280_pressure;Samples;Min_cycle;Max_cycle;Signal;HPM_P1;HPM_P2
2021/11/19 00:00:14;;;;;;;13.60;9.80;;;6.40;99.90;;;;;;4993207;28;20431;-57
2021/11/19 00:02:39;;;;;;;11.03;9.53;;;6.40;99.90;;;;;;4994055;28;20873;-56
2021/11/19 00:05:07;;;;;;;11.27;9.00;;;6.40;99.90;;;;;;4994062;28;20447;-57
2021/11/19 00:07:33;;;;;;;14.07;10.17;;;6.40;99.90;;;;;;4993619;28;20455;-56
2021/11/19 00:09:59;;;;;;;12.47;9.77;;;6.40;99.90;;;;;;4993873;28;20400;-55
2021/11/19 00:12:25;;;;;;;13.57;9.93;;;6.30;99.90;;;;;;4993980;28;20399;-55
2021/11/19 00:14:52;;;;;;;9.80;8.80;;;6.30;99.90;;;;;;4993585;28;20423;-56
2021/11/19 00:17:18;;;;;;;10.20;9.20;;;6.30;99.90;;;;;;4993877;28;20254;-58
2021/11/19 00:19:45;;;;;;;13.27;8.80;;;6.30;99.90;;;;;;4994142;28;20409;-57
2021/11/19 00:22:13;;;;;;;14.60;9.93;;;6.30;99.90;;;;;;4994141;28;20518;-55
2021/11/19 00:24:40;;;;;;;13.23;10.20;;;6.30;99.90;;;;;;4993920;28;20402;-56
2021/11/19 00:27:08;;;;;;;14.47;11.43;;;6.20;99.90;;;;;;4993988;28;20412;-55
2021/11/19 00:29:33;;;;;;;9.83;8.70;;;6.00;99.90;;;;;;4993731;28;20459;-55
2021/11/19 00:31:59;;;;;;;13.50;9.17;;;5.90;99.90;;;;;;4993863;28;20404;-55
2021/11/19 00:34:25;;;;;;;10.97;7.93;;;5.90;99.90;;;;;;4993725;28;20614;-54
2021/11/19 00:36:55;;;;;;;11.03;8.60;;;5.80;99.90;;;;;;4993458;28;20199;-55
2021/11/19 00:39:22;;;;;;;10.53;8.80;;;5.70;99.90;;;;;;4993745;28;20407;-56
2021/11/19 00:41:48;;;;;;;9.87;8.80;;;5.70;99.90;;;;;;4993723;28;20490;-56
2021/11/19 00:44:16;;;;;;;10.10;8.07;;;5.70;99.90;;;;;;4993594;28;21008;-57
2021/11/19 00:46:44;;;;;;;12.93;10.00;;;5.80;99.90;;;;;;4993593;28;20422;-56
2021/11/19 00:49:11;;;;;;;13.17;8.73;;;5.80;99.90;;;;;;4992494;28;20510;-55
2021/11/19 00:51:40;;;;;;;9.23;7.63;;;5.80;99.90;;;;;;4993415;28;20412;-56
2021/11/19 00:54:07;;;;;;;11.20;10.10;;;5.80;99.90;;;;;;4992538;28;20951;-56
2021/11/19 00:56:40;;;;;;;10.83;8.13;;;5.80;99.90;;;;;;4999926;28;20423;-57
2021/11/19 00:59:06;;;;;;;8.77;7.50;;;5.80;99.90;;;;;;5009201;28;20454;-54
2021/11/19 01:01:36;;;;;;;11.93;8.70;;;5.80;99.90;;;;;;4998635;28;20415;-56
2021/11/19 01:04:04;;;;;;;8.30;6.70;;;5.80;99.90;;;;;;4996981;28;20553;-55
2021/11/19 01:06:31;;;;;;;13.03;7.77;;;5.90;99.90;;;;;;4996624;28;20412;-55
2021/11/19 01:09:03;;;;;;;8.70;7.80;;;5.90;99.90;;;;;;4996848;28;20427;-57
2021/11/19 01:11:29;;;;;;;11.50;8.50;;;5.80;99.90;;;;;;4997011;28;20424;-55
2021/11/19 01:13:58;;;;;;;10.37;8.50;;;5.80;99.90;;;;;;4996591;28;20458;-56
2021/11/19 01:16:40;;;;;;;10.63;7.60;;;5.80;99.90;;;;;;4996909;28;20408;-56
2021/11/19 01:19:15;;;;;;;10.00;8.20;;;5.80;99.90;;;;;;4996677;28;20427;-56
2021/11/19 01:21:49;;;;;;;9.17;8.27;;;5.80;99.90;;;;;;4996586;28;20388;-57
2021/11/19 01:24:15;;;;;;;9.00;7.87;;;5.80;99.90;;;;;;4996494;28;20479;-54
2021/11/19 01:26:42;;;;;;;8.37;7.30;;;5.80;99.90;;;;;;4996985;28;20880;-56
2021/11/19 01:29:11;;;;;;;9.13;8.13;;;5.80;99.90;;;;;;4996001;28;20459;-57
2021/11/19 01:31:41;;;;;;;14.70;10.90;;;5.80;99.90;;;;;;4996385;28;20513;-56
2021/11/19 01:34:08;;;;;;;12.53;8.70;;;5.80;99.90;;;;;;4996999;28;20889;-57
2021/11/19 01:36:34;;;;;;;9.70;8.70;;;5.60;99.90;;;;;;4996036;28;20483;-53
2021/11/19 01:39:00;;;;;;;8.53;7.67;;;5.60;99.90;;;;;;4996213;28;20549;-57
2021/11/19 01:41:32;;;;;;;11.10;8.63;;;5.60;99.90;;;;;;4996328;28;20641;-57
2021/11/19 01:43:59;;;;;;;9.60;8.60;;;5.70;99.90;;;;;;4996157;28;20743;-57
2021/11/19 01:46:30;;;;;;;10.80;9.67;;;5.70;99.90;;;;;;4996148;28;20419;-56
2021/11/19 01:48:56;;;;;;;10.07;7.53;;;5.60;99.90;;;;;;4996115;28;20431;-57
2021/11/19 01:51:32;;;;;;;8.83;7.93;;;5.70;99.90;;;;;;4995817;28;20461;-56
2021/11/19 01:54:05;;;;;;;10.23;8.97;;;5.70;99.90;;;;;;4996266;28;20896;-55
2021/11/19 01:56:43;;;;;;;11.10;9.17;;;5.60;99.90;;;;;;4995715;28;20411;-55
2021/11/19 01:59:25;;;;;;;11.50;9.47;;;5.50;99.90;;;;;;5028283;23;20500;-50
2021/11/19 02:02:08;;;;;;;11.03;9.50;;;5.40;99.90;;;;;;5020347;28;20403;-51
2021/11/19 02:04:41;;;;;;;9.10;8.20;;;5.40;99.90;;;;;;5015074;28;20537;-51
2021/11/19 02:07:18;;;;;;;14.83;10.70;;;5.40;99.90;;;;;;5015193;28;20387;-55
2021/11/19 02:10:11;;;;;;;10.00;8.20;;;5.40;99.90;;;;;;5015167;28;20521;-52
2021/11/19 02:12:57;;;;;;;12.83;10.53;;;5.50;99.90;;;;;;5015148;28;20395;-50
2021/11/19 02:15:27;;;;;;;11.30;9.30;;;5.50;99.90;;;;;;5015485;28;20384;-53
2021/11/19 02:17:56;;;;;;;10.60;8.57;;;5.50;99.90;;;;;;5015420;28;20404;-51
2021/11/19 02:20:33;;;;;;;11.87;9.03;;;5.40;99.90;;;;;;5015430;28;20414;-49
2021/11/19 02:23:09;;;;;;;10.50;8.83;;;5.50;99.90;;;;;;5014994;28;20433;-52
2021/11/19 02:25:43;;;;;;;11.10;8.93;;;5.50;99.90;;;;;;5015315;28;20394;-53
2021/11/19 02:28:13;;;;;;;9.77;8.73;;;5.50;99.90;;;;;;5018217;28;20487;-54
2021/11/19 02:30:51;;;;;;;9.63;8.40;;;5.60;99.90;;;;;;5034711;28;20379;-50
2021/11/19 02:33:18;;;;;;;11.80;8.97;;;5.60;99.90;;;;;;5017068;28;20446;-51
2021/11/19 02:35:51;;;;;;;9.33;8.20;;;5.60;99.90;;;;;;5035046;28;20398;-52
2021/11/19 02:38:18;;;;;;;10.23;7.80;;;5.50;99.90;;;;;;5034715;28;20413;-51
2021/11/19 02:40:45;;;;;;;10.07;8.93;;;5.50;99.90;;;;;;5034946;28;20827;-53
2021/11/19 02:43:25;;;;;;;11.07;9.07;;;5.40;99.90;;;;;;5034637;28;20936;-50
2021/11/19 02:45:53;;;;;;;12.13;9.00;;;5.20;99.90;;;;;;5034460;28;20425;-55
2021/11/19 02:48:25;;;;;;;12.40;9.40;;;5.20;99.90;;;;;;5034492;28;20426;-50
2021/11/19 02:50:53;;;;;;;10.83;9.70;;;5.20;99.90;;;;;;5016443;28;20816;-51
2021/11/19 02:53:20;;;;;;;12.40;9.70;;;5.20;99.90;;;;;;5033862;28;20453;-54
2021/11/19 02:55:48;;;;;;;12.23;10.20;;;5.20;99.90;;;;;;5034244;28;20398;-51
2021/11/19 02:58:20;;;;;;;9.97;8.93;;;5.10;99.90;;;;;;5033820;28;20453;-50
2021/11/19 03:01:08;;;;;;;10.83;8.93;;;5.10;99.90;;;;;;5034507;28;20433;-51
2021/11/19 03:03:36;;;;;;;13.00;10.20;;;5.20;99.90;;;;;;5017391;28;20411;-52
2021/11/19 03:06:02;;;;;;;11.20;9.60;;;5.20;99.90;;;;;;5034375;28;20414;-50
2021/11/19 03:08:28;;;;;;;10.90;9.63;;;5.10;99.90;;;;;;5033972;28;20794;-53
2021/11/19 03:10:55;;;;;;;10.17;7.70;;;5.20;99.90;;;;;;5034263;28;20417;-52
2021/11/19 03:13:24;;;;;;;10.63;8.97;;;5.10;99.90;;;;;;5033970;28;20576;-52
2021/11/19 03:15:50;;;;;;;9.00;8.10;;;5.20;99.90;;;;;;5033960;28;20755;-51
2021/11/19 03:18:18;;;;;;;9.43;7.67;;;5.20;99.90;;;;;;5033464;28;20464;-51
2021/11/19 03:20:46;;;;;;;9.77;7.97;;;5.30;99.90;;;;;;5033749;28;20398;-55
2021/11/19 03:23:13;;;;;;;10.03;8.30;;;5.30;99.90;;;;;;5033568;28;20445;-52
2021/11/19 03:25:41;;;;;;;10.57;9.17;;;5.30;99.90;;;;;;5034188;28;20758;-54
2021/11/19 03:28:09;;;;;;;10.73;9.27;;;5.30;99.90;;;;;;5033215;28;20491;-55
2021/11/19 03:30:37;;;;;;;16.23;10.47;;;5.20;99.90;;;;;;5034273;28;20406;-55
2021/11/19 03:33:04;;;;;;;10.23;9.03;;;5.10;99.90;;;;;;5033646;28;20449;-51
2021/11/19 03:35:30;;;;;;;11.20;8.57;;;5.20;99.90;;;;;;5033535;28;20844;-53
2021/11/19 03:37:57;;;;;;;12.60;9.20;;;5.20;99.90;;;;;;5015678;28;20513;-50
2021/11/19 03:40:29;;;;;;;11.00;8.03;;;5.20;99.90;;;;;;5033833;28;20394;-51
2021/11/19 03:42:59;;;;;;;10.17;9.13;;;5.10;99.90;;;;;;5033985;28;20444;-55
2021/11/19 03:45:29;;;;;;;11.03;8.50;;;5.00;99.90;;;;;;5033815;28;20485;-52
2021/11/19 03:47:56;;;;;;;13.17;9.90;;;5.10;99.90;;;;;;5033514;28;20425;-51
2021/11/19 03:50:25;;;;;;;8.90;7.97;;;5.00;99.90;;;;;;5033689;28;20504;-52
2021/11/19 03:52:51;;;;;;;9.43;8.53;;;4.90;99.90;;;;;;5033888;28;20402;-52
2021/11/19 03:55:20;;;;;;;12.57;9.40;;;4.90;99.90;;;;;;5034494;28;20468;-52
2021/11/19 03:57:48;;;;;;;9.70;8.17;;;4.90;99.90;;;;;;5033888;28;20791;-57
2021/11/19 04:00:25;;;;;;;8.93;7.93;;;4.90;99.90;;;;;;5031665;28;20506;-53
2021/11/19 04:02:51;;;;;;;11.47;8.87;;;4.90;99.90;;;;;;5014565;28;20390;-50
2021/11/19 04:05:18;;;;;;;13.40;10.87;;;4.80;99.90;;;;;;5014043;28;20776;-51
2021/11/19 04:07:44;;;;;;;11.00;9.13;;;4.80;99.90;;;;;;5013801;28;20407;-51
2021/11/19 04:10:10;;;;;;;13.10;8.97;;;4.80;99.90;;;;;;5013307;28;20410;-53
2021/11/19 04:12:37;;;;;;;11.70;9.20;;;4.80;99.90;;;;;;5013546;28;20175;-52
2021/11/19 04:15:06;;;;;;;9.30;8.10;;;4.80;99.90;;;;;;5013518;28;20991;-54
2021/11/19 04:17:32;;;;;;;11.47;10.00;;;4.90;99.90;;;;;;5012356;28;20412;-51
2021/11/19 04:19:57;;;;;;;11.83;10.23;;;4.90;99.90;;;;;;5013567;28;20426;-51
2021/11/19 04:22:23;;;;;;;12.23;10.43;;;4.90;99.90;;;;;;5013482;28;20255;-51
2021/11/19 04:24:53;;;;;;;11.27;9.93;;;4.80;99.90;;;;;;5013635;28;20180;-54
2021/11/19 04:27:20;;;;;;;11.23;10.03;;;4.80;99.90;;;;;;5013596;28;20168;-51
2021/11/19 04:29:46;;;;;;;11.77;10.53;;;4.80;99.90;;;;;;5030422;28;20430;-50
2021/11/19 04:32:13;;;;;;;14.33;11.73;;;4.80;99.90;;;;;;5037471;28;20405;-51
2021/11/19 04:34:41;;;;;;;12.30;10.13;;;4.80;99.90;;;;;;5037141;28;20499;-51
2021/11/19 04:37:07;;;;;;;13.80;11.10;;;4.80;99.90;;;;;;5036936;28;20898;-50
2021/11/19 04:39:33;;;;;;;13.30;11.07;;;4.80;99.90;;;;;;5037393;28;20472;-54
2021/11/19 04:41:58;;;;;;;11.27;10.07;;;4.80;99.90;;;;;;5037364;28;20410;-52
2021/11/19 04:44:24;;;;;;;13.47;10.93;;;4.80;99.90;;;;;;5036842;28;20206;-51
2021/11/19 04:46:50;;;;;;;14.90;10.53;;;4.80;99.90;;;;;;5037245;28;20175;-50
2021/11/19 04:49:17;;;;;;;12.77;11.07;;;4.80;99.90;;;;;;5036572;28;20192;-52
2021/11/19 04:51:46;;;;;;;14.27;11.13;;;4.80;99.90;;;;;;5033777;28;20464;-54
2021/11/19 04:54:14;;;;;;;11.27;9.27;;;4.70;99.90;;;;;;5028435;28;20450;-55
2021/11/19 04:56:41;;;;;;;12.90;10.20;;;4.60;99.90;;;;;;5036757;28;20430;-56
2021/11/19 04:59:09;;;;;;;11.43;10.23;;;4.60;99.90;;;;;;5036115;28;20607;-55
2021/11/19 05:01:39;;;;;;;15.20;11.60;;;4.60;99.90;;;;;;5036532;28;20402;-53
2021/11/19 05:04:06;;;;;;;10.63;9.50;;;4.70;99.90;;;;;;5036539;28;20909;-55
2021/11/19 05:06:33;;;;;;;21.90;11.90;;;4.70;99.90;;;;;;5036635;28;20410;-55
2021/11/19 05:08:58;;;;;;;13.63;10.83;;;4.60;99.90;;;;;;5036515;28;20808;-56
2021/11/19 05:11:29;;;;;;;11.10;9.80;;;4.70;99.90;;;;;;5036295;28;20436;-56
2021/11/19 05:13:56;;;;;;;14.17;11.87;;;4.70;99.90;;;;;;5035869;28;20192;-52
2021/11/19 05:16:21;;;;;;;13.30;10.30;;;4.70;99.90;;;;;;5036303;28;20473;-50
2021/11/19 05:18:48;;;;;;;12.93;11.60;;;4.70;99.90;;;;;;5036314;28;20886;-56
2021/11/19 05:21:17;;;;;;;13.70;12.23;;;4.80;99.90;;;;;;5036026;28;20164;-51
2021/11/19 05:23:44;;;;;;;15.50;11.87;;;4.70;99.90;;;;;;5035789;28;20397;-56
2021/11/19 05:26:09;;;;;;;18.77;12.10;;;4.70;99.90;;;;;;5036550;28;20398;-56
2021/11/19 05:28:35;;;;;;;17.33;11.73;;;4.70;99.90;;;;;;5035957;28;20441;-51
2021/11/19 05:31:02;;;;;;;15.00;11.73;;;4.60;99.90;;;;;;5036422;28;20174;-52
2021/11/19 05:33:30;;;;;;;13.43;11.10;;;4.60;99.90;;;;;;5036289;28;20445;-51
2021/11/19 05:35:56;;;;;;;14.23;11.40;;;4.60;99.90;;;;;;5036174;28;20463;-57
2021/11/19 05:38:26;;;;;;;14.50;12.17;;;4.60;99.90;;;;;;5035529;28;20422;-57
2021/11/19 05:40:52;;;;;;;18.70;12.77;;;4.60;99.90;;;;;;5035719;28;20477;-51
2021/11/19 05:43:18;;;;;;;12.93;11.10;;;4.70;99.90;;;;;;5035230;28;20402;-52
2021/11/19 05:45:44;;;;;;;14.83;12.33;;;4.70;99.90;;;;;;5035474;28;20410;-50
2021/11/19 05:48:10;;;;;;;15.53;12.13;;;4.70;99.90;;;;;;5035585;28;20926;-56
2021/11/19 05:50:39;;;;;;;13.50;10.70;;;4.70;99.90;;;;;;5035838;28;20172;-52
2021/11/19 05:53:07;;;;;;;15.03;12.40;;;4.80;99.90;;;;;;5035202;28;20496;-54
2021/11/19 05:55:36;;;;;;;16.53;13.40;;;4.80;99.90;;;;;;5017574;28;20426;-52
2021/11/19 05:58:02;;;;;;;16.30;11.87;;;4.80;99.90;;;;;;5031720;28;20491;-54
2021/11/19 06:00:41;;;;;;;13.50;11.77;;;4.80;99.90;;;;;;5035103;28;20863;-52
2021/11/19 06:03:09;;;;;;;14.17;10.33;;;4.80;99.90;;;;;;5017798;28;20417;-50
2021/11/19 06:05:35;;;;;;;13.13;11.10;;;4.80;99.90;;;;;;5035300;28;20414;-54
2021/11/19 06:08:02;;;;;;;11.77;10.53;;;4.80;99.90;;;;;;5034781;28;20505;-53
2021/11/19 06:10:30;;;;;;;16.57;12.37;;;4.90;99.90;;;;;;5035239;28;20813;-52
2021/11/19 06:13:04;;;;;;;12.17;10.93;;;4.90;99.90;;;;;;5035283;28;20828;-52
2021/11/19 06:15:34;;;;;;;16.07;13.07;;;4.90;99.90;;;;;;5034904;28;20381;-52
2021/11/19 06:18:05;;;;;;;12.97;11.60;;;5.00;99.90;;;;;;5035909;28;20802;-52
2021/11/19 06:20:38;;;;;;;18.43;14.50;;;4.90;99.90;;;;;;5035462;28;20397;-53
2021/11/19 06:23:12;;;;;;;14.17;10.70;;;4.90;99.90;;;;;;5017493;28;20991;-53
2021/11/19 06:25:39;;;;;;;12.27;10.73;;;4.90;99.90;;;;;;5035256;28;20786;-56
2021/11/19 06:28:12;;;;;;;15.60;13.63;;;4.90;99.90;;;;;;5016828;28;20442;-54
2021/11/19 06:30:38;;;;;;;12.43;11.10;;;4.90;99.90;;;;;;5034491;28;20489;-53
2021/11/19 06:33:04;;;;;;;15.40;13.20;;;4.90;99.90;;;;;;5034690;28;20933;-56
2021/11/19 06:35:31;;;;;;;14.37;12.80;;;4.90;99.90;;;;;;5034342;28;20406;-56
2021/11/19 06:37:56;;;;;;;14.40;12.40;;;5.00;99.90;;;;;;5034257;28;20899;-55
2021/11/19 06:40:27;;;;;;;15.07;12.87;;;5.10;99.90;;;;;;5034546;28;20397;-51
2021/11/19 06:42:53;;;;;;;12.77;11.20;;;5.20;99.90;;;;;;5034372;28;20227;-52
2021/11/19 06:45:19;;;;;;;14.23;11.43;;;5.20;99.90;;;;;;5034029;28;20977;-55
2021/11/19 06:47:46;;;;;;;13.90;12.50;;;5.40;99.90;;;;;;5034272;28;20443;-56
2021/11/19 06:50:15;;;;;;;13.07;11.70;;;5.50;99.90;;;;;;5016935;28;20505;-53
2021/11/19 06:52:41;;;;;;;14.67;11.50;;;5.50;99.90;;;;;;5033988;28;20483;-52
2021/11/19 06:55:09;;;;;;;13.00;11.60;;;5.60;99.90;;;;;;5033462;28;20402;-52
2021/11/19 06:57:36;;;;;;;13.53;11.77;;;5.70;99.90;;;;;;5034501;28;20402;-53
2021/11/19 07:00:06;;;;;;;13.80;11.30;;;5.70;99.90;;;;;;5033695;28;20461;-53
2021/11/19 07:02:32;;;;;;;17.93;12.13;;;5.70;99.90;;;;;;5034200;28;20386;-53
2021/11/19 07:04:57;;;;;;;12.53;11.20;;;5.80;99.90;;;;;;5034011;28;20414;-53
2021/11/19 07:07:23;;;;;;;13.30;10.77;;;5.80;99.90;;;;;;5034577;28;20172;-53
2021/11/19 07:09:50;;;;;;;14.17;11.60;;;5.80;99.90;;;;;;5034409;28;20187;-52
2021/11/19 07:12:16;;;;;;;19.03;10.97;;;5.90;99.90;;;;;;5034763;28;20254;-53
2021/11/19 07:14:42;;;;;;;14.60;12.17;;;5.90;99.90;;;;;;5034387;28;20536;-52
2021/11/19 07:17:08;;;;;;;12.53;11.20;;;5.90;99.90;;;;;;5034182;28;20406;-51
2021/11/19 07:19:35;;;;;;;12.50;11.00;;;6.00;99.90;;;;;;5034050;28;20186;-55
2021/11/19 07:22:01;;;;;;;13.50;10.97;;;6.00;99.90;;;;;;5033958;28;20402;-52
2021/11/19 07:24:27;;;;;;;15.63;11.70;;;6.10;99.90;;;;;;5033507;28;20488;-50
2021/11/19 07:26:54;;;;;;;11.77;9.80;;;6.20;99.90;;;;;;5034089;28;20485;-51
2021/11/19 07:29:20;;;;;;;14.50;11.40;;;6.30;99.90;;;;;;5033205;28;20423;-51
2021/11/19 07:31:46;;;;;;;12.13;9.33;;;6.50;99.90;;;;;;5033835;28;20409;-51
2021/11/19 07:34:12;;;;;;;12.90;11.50;;;6.60;99.90;;;;;;5033670;28;20869;-52
2021/11/19 07:36:38;;;;;;;11.33;10.23;;;6.70;99.90;;;;;;5015747;28;20486;-51
2021/11/19 07:39:06;;;;;;;12.73;11.00;;;6.90;99.90;;;;;;5033166;28;20430;-51
2021/11/19 07:41:32;;;;;;;12.43;11.20;;;7.00;99.90;;;;;;5033456;28;20248;-54
2021/11/19 07:43:58;;;;;;;14.97;11.60;;;7.00;99.90;;;;;;5031115;28;20434;-51
2021/11/19 07:46:26;;;;;;;14.37;12.87;;;7.10;99.90;;;;;;5024080;28;20425;-51
2021/11/19 07:48:52;;;;;;;13.23;11.93;;;6.90;99.90;;;;;;5033560;28;20184;-53
2021/11/19 07:51:22;;;;;;;11.90;9.93;;;6.90;99.90;;;;;;5013953;28;20411;-54
2021/11/19 07:53:49;;;;;;;12.70;11.10;;;7.00;99.90;;;;;;5013191;28;20453;-52
2021/11/19 07:56:17;;;;;;;13.27;11.83;;;7.10;99.90;;;;;;5014153;28;20408;-51
2021/11/19 07:58:43;;;;;;;12.23;10.63;;;7.20;99.90;;;;;;5021538;28;20487;-56
2021/11/19 08:01:09;;;;;;;11.97;10.63;;;7.20;99.90;;;;;;5015143;28;20425;-55
2021/11/19 08:03:36;;;;;;;15.07;11.43;;;7.30;99.90;;;;;;5029258;23;20478;-54
2021/11/19 08:06:03;;;;;;;12.27;10.60;;;7.30;99.90;;;;;;4987077;28;20853;-55
2021/11/19 08:08:32;;;;;;;11.17;10.00;;;7.30;99.90;;;;;;4993914;28;20412;-56
2021/11/19 08:10:59;;;;;;;11.83;10.60;;;7.40;99.90;;;;;;4993853;28;20407;-56
2021/11/19 08:13:26;;;;;;;12.07;10.83;;;7.40;99.90;;;;;;4993650;28;20544;-56
2021/11/19 08:15:51;;;;;;;14.00;11.37;;;7.50;99.90;;;;;;4993936;28;20416;-56
2021/11/19 08:18:29;;;;;;;11.93;10.50;;;7.60;99.90;;;;;;4993596;28;20423;-55
2021/11/19 08:20:57;;;;;;;14.27;11.13;;;7.60;99.90;;;;;;4993945;28;20153;-55
2021/11/19 08:23:34;;;;;;;13.30;10.27;;;7.80;99.90;;;;;;4992363;28;20432;-57
2021/11/19 08:26:10;;;;;;;12.57;10.57;;;7.90;99.90;;;;;;4993874;28;20398;-56
2021/11/19 08:28:37;;;;;;;13.97;11.17;;;7.80;99.90;;;;;;4993816;28;20397;-55
2021/11/19 08:31:05;;;;;;;20.53;12.00;;;7.80;99.90;;;;;;4992257;28;20417;-56
2021/11/19 08:33:31;;;;;;;14.63;11.73;;;7.80;99.90;;;;;;4993657;28;20458;-56
2021/11/19 08:35:57;;;;;;;13.47;10.67;;;7.90;99.90;;;;;;4994409;28;20417;-55
2021/11/19 08:38:26;;;;;;;16.30;11.10;;;7.80;99.90;;;;;;4993426;28;20411;-57
2021/11/19 08:40:52;;;;;;;15.80;11.10;;;7.90;99.90;;;;;;4993457;28;20406;-56
2021/11/19 08:43:28;;;;;;;19.40;13.10;;;7.80;99.90;;;;;;4993562;28;20430;-56
2021/11/19 08:45:57;;;;;;;14.80;11.03;;;7.70;99.90;;;;;;4994073;28;20396;-57
2021/11/19 08:48:25;;;;;;;12.13;10.30;;;7.80;99.90;;;;;;4993554;28;20773;-56
2021/11/19 08:50:52;;;;;;;11.97;10.47;;;8.00;99.90;;;;;;4993850;28;20403;-57
2021/11/19 08:53:18;;;;;;;13.53;12.20;;;8.20;99.90;;;;;;4993403;28;20452;-53
2021/11/19 08:55:50;;;;;;;18.83;11.23;;;8.00;99.90;;;;;;4993511;28;20408;-55
2021/11/19 08:58:18;;;;;;;14.73;11.77;;;8.00;99.90;;;;;;4993600;28;20824;-54
2021/11/19 09:00:46;;;;;;;13.93;10.70;;;7.90;99.90;;;;;;4993598;28;20406;-53
2021/11/19 09:03:12;;;;;;;16.43;12.30;;;8.00;99.90;;;;;;4993071;28;20462;-55
2021/11/19 09:05:40;;;;;;;13.67;11.80;;;8.00;99.90;;;;;;4993665;28;20938;-53
2021/11/19 09:08:08;;;;;;;19.73;13.50;;;7.80;99.90;;;;;;4993477;28;20167;-55
2021/11/19 09:10:35;;;;;;;13.23;11.20;;;7.70;99.90;;;;;;4993614;28;20425;-56
2021/11/19 09:13:02;;;;;;;16.13;12.70;;;7.80;99.90;;;;;;4993655;28;20448;-54
2021/11/19 09:15:28;;;;;;;16.40;14.33;;;8.10;99.90;;;;;;4993876;28;20419;-55
2021/11/19 09:18:04;;;;;;;17.93;13.90;;;8.30;99.90;;;;;;4995611;28;20406;-56
2021/11/19 09:21:01;;;;;;;21.00;14.60;;;8.30;99.90;;;;;;4997407;28;20148;-54
2021/11/19 09:23:33;;;;;;;17.87;13.23;;;8.30;99.90;;;;;;4996810;28;20420;-56
2021/11/19 09:26:05;;;;;;;18.00;15.37;;;8.30;99.90;;;;;;4997010;28;20901;-57
2021/11/19 09:28:36;;;;;;;21.40;15.33;;;8.20;99.90;;;;;;4997589;28;20387;-56
2021/11/19 09:31:06;;;;;;;18.30;14.97;;;8.20;99.90;;;;;;4997462;28;20521;-51
2021/11/19 09:33:32;;;;;;;19.47;15.30;;;8.40;99.90;;;;;;4997186;28;20454;-53
2021/11/19 09:35:58;;;;;;;19.90;16.27;;;8.40;99.90;;;;;;5002267;28;20412;-56
2021/11/19 09:38:26;;;;;;;23.83;16.00;;;8.60;99.90;;;;;;4998814;28;20403;-55
2021/11/19 09:40:58;;;;;;;19.87;16.10;;;8.80;99.90;;;;;;4992898;28;20179;-57
2021/11/19 09:43:50;;;;;;;20.13;16.10;;;8.50;99.90;;;;;;4980670;28;20496;-57
2021/11/19 09:46:19;;;;;;;24.07;15.77;;;8.60;99.90;;;;;;4985302;28;20495;-57
2021/11/19 09:48:59;;;;;;;24.50;17.53;;;8.70;99.90;;;;;;4982271;28;20423;-56
2021/11/19 09:51:43;;;;;;;19.57;15.30;;;8.80;99.90;;;;;;4977659;28;20419;-56
2021/11/19 09:54:33;;;;;;;22.03;15.10;;;8.70;99.90;;;;;;4976890;28;20501;-53
2021/11/19 09:57:05;;;;;;;19.37;14.17;;;8.60;99.90;;;;;;4978910;28;20495;-57
2021/11/19 09:59:45;;;;;;;15.27;12.83;;;8.50;99.90;;;;;;4977372;28;20908;-54
2021/11/19 10:02:44;;;;;;;21.63;15.20;;;8.50;99.90;;;;;;4977276;28;20403;-56
2021/11/19 10:05:25;;;;;;;24.73;15.43;;;8.70;99.90;;;;;;4996579;28;20427;-57
2021/11/19 10:08:06;;;;;;;23.00;16.00;;;8.80;99.90;;;;;;4996438;28;20401;-57
2021/11/19 10:10:34;;;;;;;17.50;15.07;;;8.60;99.90;;;;;;4995165;28;20414;-54
2021/11/19 10:13:27;;;;;;;23.27;15.83;;;8.70;99.90;;;;;;4996423;28;20442;-52
2021/11/19 10:16:02;;;;;;;23.70;15.90;;;8.90;99.90;;;;;;5003622;28;20423;-55
2021/11/19 10:18:33;;;;;;;19.23;15.13;;;8.90;99.90;;;;;;5006425;28;20413;-57
2021/11/19 10:21:06;;;;;;;31.53;15.77;;;8.90;99.90;;;;;;5004517;28;20410;-57
2021/11/19 10:23:40;;;;;;;20.80;15.63;;;9.10;99.90;;;;;;5006854;28;20439;-57
2021/11/19 10:26:13;;;;;;;19.20;14.50;;;8.90;99.90;;;;;;5005447;28;20410;-58
2021/11/19 10:28:43;;;;;;;21.23;14.63;;;8.70;99.90;;;;;;5004978;28;20403;-55
2021/11/19 10:31:12;;;;;;;19.90;16.67;;;8.50;99.90;;;;;;5001718;28;20451;-56
2021/11/19 10:33:41;;;;;;;25.20;16.17;;;8.60;99.90;;;;;;5003362;28;20461;-57
2021/11/19 10:36:33;;;;;;;19.13;15.20;;;8.80;99.90;;;;;;4996300;28;20416;-56
2021/11/19 10:39:24;;;;;;;19.40;14.90;;;8.80;99.90;;;;;;4995547;28;20393;-56
2021/11/19 10:42:08;;;;;;;20.40;16.77;;;8.70;99.90;;;;;;4995404;28;20870;-57
2021/11/19 10:45:05;;;;;;;22.37;16.40;;;8.90;99.90;;;;;;4995681;28;20419;-55
2021/11/19 10:47:46;;;;;;;24.03;17.10;;;9.10;99.90;;;;;;4995818;28;20498;-57
2021/11/19 10:50:23;;;;;;;23.10;16.17;;;9.10;99.90;;;;;;4995062;28;20938;-58
2021/11/19 10:53:09;;;;;;;22.70;16.07;;;9.30;99.90;;;;;;4995108;28;20916;-56
2021/11/19 10:55:46;;;;;;;23.23;16.20;;;9.40;99.90;;;;;;4992472;28;20413;-58
2021/11/19 10:58:46;;;;;;;23.83;17.10;;;9.50;99.90;;;;;;4980524;28;20416;-57
2021/11/19 11:01:14;;;;;;;22.60;17.23;;;9.40;99.90;;;;;;4975641;28;20388;-58
2021/11/19 11:03:55;;;;;;;23.50;17.83;;;9.30;99.90;;;;;;4987166;28;20904;-56
2021/11/19 11:06:53;;;;;;;22.27;16.07;;;9.50;99.90;;;;;;4995063;28;20384;-51
2021/11/19 11:09:27;;;;;;;22.00;16.77;;;9.40;99.90;;;;;;4994547;28;20757;-58
2021/11/19 11:12:21;;;;;;;22.20;16.00;;;9.10;99.90;;;;;;4994982;28;20592;-58
2021/11/19 11:15:00;;;;;;;24.40;19.07;;;9.00;99.90;;;;;;4977576;28;20483;-57
2021/11/19 11:17:33;;;;;;;24.07;18.20;;;9.10;99.90;;;;;;4994818;28;20391;-58
2021/11/19 11:20:01;;;;;;;20.33;16.83;;;9.30;99.90;;;;;;4994286;28;20932;-58
2021/11/19 11:22:38;;;;;;;20.30;16.60;;;9.50;99.90;;;;;;4994622;28;20432;-56
2021/11/19 11:25:20;;;;;;;22.67;18.00;;;9.70;99.90;;;;;;4994461;28;20801;-58
2021/11/19 11:28:14;;;;;;;26.83;16.60;;;9.80;99.90;;;;;;4994775;28;20391;-58
2021/11/19 11:30:56;;;;;;;26.33;18.50;;;9.70;99.90;;;;;;4994433;28;20388;-58
2021/11/19 11:33:27;;;;;;;22.93;18.20;;;9.60;99.90;;;;;;4993907;28;20443;-58
2021/11/19 11:36:08;;;;;;;24.50;17.43;;;9.30;99.90;;;;;;4994099;28;20889;-55
2021/11/19 11:39:02;;;;;;;21.80;18.70;;;8.90;99.90;;;;;;4994401;28;20902;-57
2021/11/19 11:41:41;;;;;;;21.70;18.70;;;9.00;99.90;;;;;;4994064;28;20386;-58
2021/11/19 11:44:06;;;;;;;25.83;18.83;;;9.10;99.90;;;;;;4994246;28;20928;-58
2021/11/19 11:46:40;;;;;;;24.03;17.83;;;9.10;99.90;;;;;;4994507;28;20414;-58
2021/11/19 11:49:16;;;;;;;27.00;16.67;;;9.40;99.90;;;;;;4984622;28;20248;-57
2021/11/19 11:52:08;;;;;;;24.30;18.10;;;9.30;99.90;;;;;;4975208;28;20753;-53
2021/11/19 11:54:52;;;;;;;20.13;16.87;;;9.50;99.90;;;;;;4974566;28;20953;-58
2021/11/19 11:57:21;;;;;;;28.53;18.60;;;9.80;99.90;;;;;;4975161;28;20393;-57
2021/11/19 12:00:01;;;;;;;22.87;17.53;;;9.50;99.90;;;;;;4975074;28;20412;-56
2021/11/19 12:02:33;;;;;;;25.13;17.17;;;9.40;99.90;;;;;;4977150;28;20458;-57
2021/11/19 12:05:06;;;;;;;24.50;16.27;;;9.50;99.90;;;;;;4993587;28;20498;-57
2021/11/19 12:07:57;;;;;;;23.70;17.23;;;9.10;99.90;;;;;;4994182;28;20412;-55
2021/11/19 12:10:43;;;;;;;22.00;17.63;;;9.20;99.90;;;;;;4993839;28;20392;-57
2021/11/19 12:13:31;;;;;;;23.33;16.73;;;9.30;99.90;;;;;;4994109;28;20896;-57
2021/11/19 12:16:21;;;;;;;24.80;15.60;;;9.50;99.90;;;;;;4994169;28;20377;-57
2021/11/19 12:18:55;;;;;;;20.23;16.60;;;9.70;99.90;;;;;;4993896;28;20376;-56
2021/11/19 12:21:25;;;;;;;25.60;17.83;;;9.80;99.90;;;;;;4993988;28;20882;-58
2021/11/19 12:24:21;;;;;;;17.57;14.77;;;9.60;99.90;;;;;;4993460;28;20453;-57
2021/11/19 12:27:04;;;;;;;20.80;15.93;;;9.20;99.90;;;;;;4994188;28;20784;-58
2021/11/19 12:29:44;;;;;;;20.40;14.83;;;9.10;99.90;;;;;;4995787;28;20377;-58
2021/11/19 12:32:24;;;;;;;26.10;19.07;;;9.10;99.90;;;;;;4993764;28;20390;-57
2021/11/19 12:34:57;;;;;;;23.00;14.43;;;9.10;99.90;;;;;;4993426;28;20440;-58
2021/11/19 12:37:36;;;;;;;22.10;16.93;;;8.80;99.90;;;;;;4994514;28;20395;-58
2021/11/19 12:40:14;;;;;;;26.93;16.10;;;8.70;99.90;;;;;;4993704;28;20384;-58
2021/11/19 12:42:48;;;;;;;19.30;14.07;;;8.90;99.90;;;;;;4993932;28;20416;-58
2021/11/19 12:45:27;;;;;;;39.33;26.23;;;9.00;99.90;;;;;;4994232;28;20388;-58
2021/11/19 12:48:12;;;;;;;18.13;15.57;;;8.90;99.90;;;;;;4993965;28;20395;-57
2021/11/19 12:50:45;;;;;;;17.77;13.07;;;9.00;99.90;;;;;;4994036;28;20483;-57
2021/11/19 12:53:17;;;;;;;18.00;13.47;;;9.30;99.90;;;;;;4996443;28;20469;-58
2021/11/19 12:56:02;;;;;;;14.60;12.03;;;9.60;99.90;;;;;;4997907;28;20482;-58
2021/11/19 12:58:38;;;;;;;17.20;13.13;;;9.70;99.90;;;;;;4997774;28;20937;-52
2021/11/19 13:01:15;;;;;;;17.77;13.70;;;9.40;99.90;;;;;;4998094;28;20376;-57